Time;durP1;ratioP1;P1;durP2;ratioP2;P2;SDS_P1;SDS_P2;PMS_P1;PMS_P2;Temp;Humidity;BMP_temperature;BMP_pressure;BME280_temperature;BME280_humidity;BME280_pressure;Samples;Min_cycle;Max_cycle;Signal;HPM_P1;HPM_P2
2021/07/01 00:01:20;;;;;;;9.98;8.68;;;;;;;29.21;100.00;100288.31;4863234;29;20456;-76
2021/07/01 00:04:06;;;;;;;11.95;8.38;;;;;;;28.92;100.00;100284.97;4862966;29;20040;-76
2021/07/01 00:06:52;;;;;;;11.77;8.93;;;;;;;28.89;100.00;100287.97;4849712;29;20132;-76
2021/07/01 00:09:38;;;;;;;9.93;8.38;;;;;;;29.03;100.00;100290.19;4862313;29;20052;-76
2021/07/01 00:12:24;;;;;;;9.15;8.20;;;;;;;28.84;100.00;100303.78;4848935;29;20041;-76
2021/07/01 00:15:14;;;;;;;13.32;8.18;;;;;;;29.08;100.00;100293.25;4862177;29;20021;-76
2021/07/01 00:18:00;;;;;;;13.65;8.75;;;;;;;28.64;100.00;100318.38;4863069;29;20374;-76
2021/07/01 00:20:45;;;;;;;14.23;9.10;;;;;;;28.62;100.00;100315.00;4862862;29;20097;-76
2021/07/01 00:23:31;;;;;;;10.90;9.20;;;;;;;28.43;100.00;100298.06;4862291;29;20392;-76
2021/07/01 00:26:18;;;;;;;11.02;9.02;;;;;;;28.66;100.00;100300.22;4848766;29;20117;-76
2021/07/01 00:29:04;;;;;;;14.68;9.38;;;;;;;28.54;100.00;100301.44;4863777;29;20037;-76
2021/07/01 00:31:50;;;;;;;11.20;8.68;;;;;;;28.59;100.00;100299.13;4862784;29;20161;-76
2021/07/01 00:34:36;;;;;;;12.93;8.60;;;;;;;28.81;100.00;100301.38;4863633;29;20044;-76
2021/07/01 00:37:21;;;;;;;12.35;8.73;;;;;;;28.92;100.00;100306.56;4863335;29;20396;-76
2021/07/01 00:40:09;;;;;;;15.00;9.35;;;;;;;28.94;100.00;100299.19;4862807;29;20040;-76
2021/07/01 00:42:54;;;;;;;9.45;8.13;;;;;;;28.78;100.00;100296.31;4862348;29;20109;-76
2021/07/01 00:45:40;;;;;;;14.57;8.80;;;;;;;28.78;100.00;100299.00;4862980;29;20062;-76
2021/07/01 00:48:26;;;;;;;15.38;9.52;;;;;;;28.23;100.00;100301.81;4862510;29;20030;-76
2021/07/01 00:51:12;;;;;;;10.38;9.18;;;;;;;28.43;100.00;100295.38;4861370;29;20455;-76
2021/07/01 00:53:57;;;;;;;12.45;10.20;;;;;;;28.42;100.00;100297.25;4862021;29;20029;-76
2021/07/01 00:56:44;;;;;;;12.32;10.05;;;;;;;28.53;100.00;100291.63;4862548;29;20072;-75
2021/07/01 00:59:29;;;;;;;11.07;9.85;;;;;;;28.51;100.00;100301.72;4863131;29;20451;-75
2021/07/01 01:02:15;;;;;;;15.88;10.48;;;;;;;28.23;100.00;100294.59;4862554;29;20030;-76
2021/07/01 01:05:01;;;;;;;15.43;9.80;;;;;;;28.37;100.00;100304.88;4863711;29;20117;-76
2021/07/01 01:07:47;;;;;;;12.63;10.02;;;;;;;27.95;100.00;100298.25;4865248;29;20037;-76
2021/07/01 01:10:33;;;;;;;12.07;9.98;;;;;;;28.21;100.00;100296.59;4865436;29;20481;-76
2021/07/01 01:13:26;;;;;;;13.00;9.82;;;;;;;28.34;100.00;100299.81;4865020;29;20048;-76
2021/07/01 01:16:12;;;;;;;11.68;10.02;;;;;;;28.36;100.00;100295.09;4866766;29;20083;-76
2021/07/01 01:18:58;;;;;;;17.38;10.93;;;;;;;28.24;100.00;100293.59;4865837;29;20033;-76
2021/07/01 01:21:50;;;;;;;12.77;10.48;;;;;;;28.10;100.00;100307.56;4852325;29;20068;-75
2021/07/01 01:24:36;;;;;;;14.90;10.60;;;;;;;28.04;100.00;100310.00;4852227;29;20029;-76
2021/07/01 01:27:22;;;;;;;12.82;10.43;;;;;;;28.20;100.00;100302.97;4865000;29;20108;-76
2021/07/01 01:56:02;;;;;;;13.45;9.73;;;;;;;27.22;100.00;100292.72;4865628;29;20069;-75
2021/07/01 01:58:48;;;;;;;9.57;8.65;;;;;;;27.32;100.00;100289.00;4865833;29;20462;-76
2021/07/01 02:01:34;;;;;;;15.57;9.80;;;;;;;27.15;100.00;100299.59;4864800;29;20041;-76
2021/07/01 02:04:19;;;;;;;13.50;9.30;;;;;;;27.42;100.00;100295.25;4865667;29;20448;-76
2021/07/01 02:07:05;;;;;;;15.75;10.02;;;;;;;27.05;100.00;100290.69;4865626;29;20049;-75
2021/07/01 02:09:51;;;;;;;13.65;9.82;;;;;;;27.04;100.00;100295.22;4863778;29;20112;-76
2021/07/01 02:12:37;;;;;;;15.07;9.80;;;;;;;27.26;100.00;100299.50;4865309;29;20116;-76
2021/07/01 02:15:24;;;;;;;11.75;9.82;;;;;;;27.02;100.00;100310.66;4865130;29;20416;-76
2021/07/01 02:18:10;;;;;;;12.20;9.40;;;;;;;26.94;100.00;100323.09;4865430;29;20452;-75
2021/07/01 02:20:56;;;;;;;15.07;9.15;;;;;;;26.94;100.00;100333.84;4864110;29;20033;-76
2021/07/01 02:23:41;;;;;;;13.32;9.88;;;;;;;26.67;100.00;100328.28;4863828;29;20082;-76
2021/07/01 02:26:27;;;;;;;14.40;9.85;;;;;;;27.17;100.00;100338.00;4863404;29;20029;-75
2021/07/01 02:29:13;;;;;;;14.55;8.98;;;;;;;26.88;100.00;100340.63;4865791;29;20093;-76
2021/07/01 02:31:59;;;;;;;11.07;9.00;;;;;;;26.76;100.00;100348.97;4864720;29;20033;-75
2021/07/01 02:34:44;;;;;;;12.90;9.80;;;;;;;26.85;100.00;100351.66;4865029;29;20038;-75
2021/07/01 02:37:30;;;;;;;14.20;9.77;;;;;;;26.68;100.00;100354.19;4864699;29;20061;-75
2021/07/01 02:40:16;;;;;;;12.27;9.25;;;;;;;26.72;100.00;100356.44;4864709;29;20049;-75
2021/07/01 02:43:02;;;;;;;11.10;9.43;;;;;;;26.73;100.00;100358.13;4851096;29;20069;-75
2021/07/01 02:45:47;;;;;;;13.82;8.65;;;;;;;26.95;100.00;100366.00;4862995;29;20391;-75
2021/07/01 02:48:33;;;;;;;15.13;9.80;;;;;;;26.70;100.00;100365.63;4864528;29;20053;-75
2021/07/01 02:51:19;;;;;;;11.23;9.93;;;;;;;26.61;100.00;100367.28;4864018;29;20033;-75
2021/07/01 02:54:04;;;;;;;11.52;9.77;;;;;;;26.69;100.00;100369.31;4863082;29;20033;-75
2021/07/01 02:56:50;;;;;;;11.77;9.85;;;;;;;26.84;100.00;100368.78;4851103;29;20041;-75
2021/07/01 02:59:36;;;;;;;14.65;9.75;;;;;;;26.71;100.00;100367.34;4864206;29;20025;-76
2021/07/01 03:02:22;;;;;;;10.82;9.02;;;;;;;26.69;100.00;100362.09;4864526;29;20037;-75
2021/07/01 03:05:08;;;;;;;13.18;9.48;;;;;;;26.80;100.00;100367.38;4863665;29;20149;-75
2021/07/01 03:07:53;;;;;;;12.18;9.70;;;;;;;26.48;100.00;100380.09;4864171;29;20044;-75
2021/07/01 03:10:39;;;;;;;12.30;9.30;;;;;;;26.51;100.00;100377.16;4864374;29;20040;-76
2021/07/01 03:13:25;;;;;;;13.60;9.70;;;;;;;26.63;100.00;100381.47;4862829;29;20448;-75
2021/07/01 03:16:11;;;;;;;17.17;10.15;;;;;;;26.62;100.00;100386.97;4864375;29;20034;-75
2021/07/01 03:18:56;;;;;;;13.60;9.93;;;;;;;26.49;100.00;100378.28;4850072;29;20033;-76
2021/07/01 03:21:42;;;;;;;14.48;9.68;;;;;;;26.61;100.00;100385.28;4863476;29;20130;-75
2021/07/01 03:24:28;;;;;;;29.58;12.48;;;;;;;26.52;100.00;100389.59;4864351;29;20032;-76
2021/07/01 03:27:14;;;;;;;22.25;10.15;;;;;;;26.57;100.00;100394.56;4862180;29;20403;-75
2021/07/01 03:29:59;;;;;;;24.27;10.32;;;;;;;26.62;100.00;100395.91;4862482;29;20137;-75
2021/07/01 03:32:45;;;;;;;14.50;10.20;;;;;;;26.38;100.00;100402.53;4848684;29;20034;-75
2021/07/01 03:35:31;;;;;;;15.45;9.95;;;;;;;26.39;100.00;100409.59;4849513;29;20104;-75
2021/07/01 03:38:17;;;;;;;13.85;10.25;;;;;;;26.16;100.00;100416.16;4862445;29;20033;-75
2021/07/01 03:41:04;;;;;;;14.38;9.68;;;;;;;26.21;100.00;100416.59;4862887;29;20048;-75
2021/07/01 03:43:52;;;;;;;12.43;10.48;;;;;;;26.57;100.00;100410.69;4850865;29;20061;-75
2021/07/01 03:46:38;;;;;;;13.60;11.15;;;;;;;26.53;100.00;100417.31;4850091;29;20034;-75
2021/07/01 03:49:24;;;;;;;17.42;11.13;;;;;;;26.65;100.00;100421.66;4861732;29;20022;-75
2021/07/01 03:52:10;;;;;;;16.35;10.60;;;;;;;26.33;100.00;100450.47;4862202;29;20075;-75
2021/07/01 03:54:55;;;;;;;12.93;10.80;;;;;;;26.21;100.00;100448.84;4861644;29;20045;-75
2021/07/01 03:57:41;;;;;;;16.42;12.45;;;;;;;26.11;100.00;100462.19;4861935;29;20463;-75
2021/07/01 04:00:28;;;;;;;17.33;13.20;;;;;;;25.13;100.00;100485.69;4862391;29;20526;-75
2021/07/01 04:03:13;;;;;;;17.20;13.38;;;;;;;25.00;100.00;100498.34;4862360;29;20044;-75
2021/07/01 04:05:59;;;;;;;16.90;13.18;;;;;;;25.03;100.00;100502.63;4862202;29;20026;-75
2021/07/01 04:08:45;;;;;;;16.45;13.00;;;;;;;24.97;100.00;100505.78;4862420;29;20033;-75
2021/07/01 04:11:31;;;;;;;16.83;13.07;;;;;;;25.23;100.00;100486.63;4862506;29;20387;-76
2021/07/01 04:14:18;;;;;;;17.75;12.25;;;;;;;25.23;100.00;100507.25;4861808;29;20044;-75
2021/07/01 04:17:04;;;;;;;14.23;12.60;;;;;;;24.95;100.00;100489.00;4849921;29;20053;-75
2021/07/01 04:19:49;;;;;;;15.82;11.55;;;;;;;24.96;100.00;100520.19;4848701;29;20044;-75
2021/07/01 04:22:35;;;;;;;23.85;11.98;;;;;;;25.05;100.00;100474.72;4861943;29;20025;-74
2021/07/01 04:25:21;;;;;;;12.77;11.48;;;;;;;25.31;100.00;100489.56;4860514;29;20105;-74
2021/07/01 04:28:06;;;;;;;20.00;11.95;;;;;;;24.95;100.00;100465.72;4861660;29;20029;-74
2021/07/01 04:30:52;;;;;;;14.45;11.80;;;;;;;25.19;100.00;100469.09;4861541;29;20113;-75
2021/07/01 04:33:38;;;;;;;17.65;11.57;;;;;;;24.83;100.00;100468.53;4860703;29;20030;-75
2021/07/01 04:36:24;;;;;;;13.68;11.82;;;;;;;24.05;100.00;100482.75;4861695;29;20088;-75
2021/07/01 04:39:09;;;;;;;15.10;12.30;;;;;;;24.04;100.00;100473.91;4862533;29;20199;-75
2021/07/01 04:41:55;;;;;;;14.90;12.10;;;;;;;24.09;100.00;100454.78;4865820;29;20097;-75
2021/07/01 04:44:41;;;;;;;20.05;11.88;;;;;;;24.74;100.00;100461.22;4863868;29;20041;-75
2021/07/01 04:47:26;;;;;;;14.25;11.98;;;;;;;24.77;100.00;100477.06;4866821;29;20045;-75
2021/07/01 04:50:12;;;;;;;16.55;13.15;;;;;;;24.66;100.00;100469.88;4864956;29;20033;-75
2021/07/01 04:52:58;;;;;;;16.55;12.13;;;;;;;25.09;100.00;100467.28;4865808;29;20068;-75
2021/07/01 04:55:44;;;;;;;16.80;12.00;;;;;;;25.23;100.00;100465.16;4864974;29;20097;-75
2021/07/01 04:58:29;;;;;;;18.38;12.35;;;;;;;25.10;100.00;100461.78;4865483;29;20546;-74
2021/07/01 05:01:15;;;;;;;16.23;11.80;;;;;;;25.38;100.00;100463.09;4852688;29;20045;-75
2021/07/01 05:04:01;;;;;;;13.45;11.63;;;;;;;25.05;100.00;100461.31;4851828;29;20021;-75
2021/07/01 05:06:47;;;;;;;22.20;12.55;;;;;;;25.24;100.00;100461.50;4865157;29;20128;-75
2021/07/01 05:09:32;;;;;;;16.08;11.75;;;;;;;25.38;100.00;100463.97;4864748;29;20411;-75
2021/07/01 05:12:18;;;;;;;27.77;12.90;;;;;;;25.34;100.00;100453.59;4865200;29;20034;-75
2021/07/01 05:15:04;;;;;;;19.65;12.23;;;;;;;25.34;100.00;100453.59;4864542;29;20045;-75
2021/07/01 05:17:50;;;;;;;19.70;13.43;;;;;;;25.53;100.00;100451.09;4852059;29;20033;-75
2021/07/01 05:20:36;;;;;;;19.10;14.02;;;;;;;24.79;100.00;100467.06;4865268;29;20026;-75
2021/07/01 05:23:22;;;;;;;18.65;14.65;;;;;;;24.65;100.00;100462.81;4865206;29;20057;-75
2021/07/01 05:26:07;;;;;;;18.17;13.93;;;;;;;25.26;100.00;100474.78;4864676;29;20412;-75
2021/07/01 05:28:53;;;;;;;19.20;14.77;;;;;;;25.10;100.00;100477.88;4851139;29;20055;-75
2021/07/01 05:31:41;;;;;;;17.83;13.13;;;;;;;24.95;100.00;100472.91;4863980;29;20052;-75
2021/07/01 05:34:27;;;;;;;20.20;14.00;;;;;;;24.88;100.00;100477.06;4851273;29;20022;-75
2021/07/01 05:37:13;;;;;;;23.48;13.38;;;;;;;24.80;100.00;100496.44;4851520;29;20029;-74
2021/07/01 05:39:58;;;;;;;20.02;13.77;;;;;;;24.73;100.00;100492.53;4864273;29;20034;-75
2021/07/01 05:42:48;;;;;;;16.50;13.48;;;;;;;24.97;100.00;100493.25;4864925;29;20029;-75
2021/07/01 05:45:38;;;;;;;22.88;14.32;;;;;;;24.77;100.00;100485.09;4850423;29;20053;-75
2021/07/01 05:48:26;;;;;;;17.10;13.25;;;;;;;25.10;100.00;100491.28;4852501;29;20041;-75
2021/07/01 05:51:15;;;;;;;16.95;13.15;;;;;;;25.38;100.00;100508.69;4850036;29;20383;-75
2021/07/01 05:57:28;;;;;;;19.60;16.10;;;;;;;25.89;100.00;100537.47;4790429;29;20116;-77
2021/07/01 06:00:17;;;;;;;17.90;13.52;;;;;;;26.39;100.00;100531.38;4790418;30;20031;-76
2021/07/01 06:03:03;;;;;;;14.05;11.70;;;;;;;25.66;100.00;100526.91;4858184;29;20033;-75
2021/07/01 06:05:55;;;;;;;24.15;14.93;;;;;;;26.13;100.00;100519.31;4850752;29;20100;-75
2021/07/01 06:08:43;;;;;;;12.85;11.43;;;;;;;26.04;100.00;100519.25;4850468;29;20036;-76
2021/07/01 06:11:28;;;;;;;17.10;12.07;;;;;;;25.98;100.00;100528.66;4851214;29;20029;-76
2021/07/01 06:14:19;;;;;;;16.65;11.30;;;;;;;26.60;100.00;100528.72;4850828;29;20034;-76
2021/07/01 06:17:06;;;;;;;16.27;11.77;;;;;;;26.20;100.00;100533.09;4866302;29;20030;-75
2021/07/01 06:19:52;;;;;;;13.95;10.68;;;;;;;26.32;100.00;100545.47;4851225;29;20033;-75
2021/07/01 06:22:40;;;;;;;12.32;10.35;;;;;;;25.90;100.00;100552.59;4864325;29;20104;-77
2021/07/01 06:25:25;;;;;;;12.50;10.60;;;;;;;26.34;100.00;100546.19;4864664;29;20049;-76
2021/07/01 06:28:13;;;;;;;14.25;10.23;;;;;;;26.56;100.00;100559.50;4850590;29;20366;-77
2021/07/01 06:31:03;;;;;;;12.90;10.75;;;;;;;26.42;100.00;100560.69;4849992;29;20360;-77
2021/07/01 06:33:49;;;;;;;12.77;9.52;;;;;;;26.31;100.00;100549.13;4862458;29;20050;-77
2021/07/01 06:36:40;;;;;;;13.73;10.13;;;;;;;25.75;100.00;100547.63;4863383;29;20025;-76
2021/07/01 06:39:27;;;;;;;17.58;10.57;;;;;;;26.06;100.00;100547.69;4863114;29;20455;-77
2021/07/01 06:42:17;;;;;;;13.55;10.07;;;;;;;25.98;100.00;100557.34;4850622;29;20037;-77
2021/07/01 06:45:03;;;;;;;14.05;10.48;;;;;;;26.02;100.00;100545.38;4850195;29;20108;-76
2021/07/01 06:47:52;;;;;;;18.83;10.27;;;;;;;26.03;100.00;100525.56;4863570;29;20033;-76
2021/07/01 06:50:40;;;;;;;13.85;10.57;;;;;;;25.93;100.00;100532.69;4862725;29;20034;-77
2021/07/01 06:53:27;;;;;;;17.38;11.23;;;;;;;26.19;100.00;100526.00;4850353;29;20040;-77
2021/07/01 06:56:14;;;;;;;17.27;11.10;;;;;;;26.53;100.00;100500.63;4862912;29;20085;-77
2021/07/01 06:59:03;;;;;;;18.63;10.60;;;;;;;26.51;100.00;100499.91;4850150;29;20033;-76
2021/07/01 07:01:49;;;;;;;12.90;10.70;;;;;;;26.85;100.00;100510.28;4862606;29;20478;-77
2021/07/01 07:04:36;;;;;;;17.33;10.40;;;;;;;26.88;100.00;100507.34;4862185;29;20052;-77
2021/07/01 07:07:22;;;;;;;15.90;10.20;;;;;;;27.43;100.00;100506.00;4862873;29;20041;-76
2021/07/01 07:10:10;;;;;;;15.23;10.18;;;;;;;27.76;100.00;100499.38;4849282;29;20029;-76
2021/07/01 07:12:56;;;;;;;20.52;9.68;;;;;;;27.97;100.00;100500.13;4862178;29;20033;-77
2021/07/01 07:15:44;;;;;;;12.98;10.60;;;;;;;27.93;100.00;100507.66;4850387;29;20416;-77
2021/07/01 07:18:36;;;;;;;14.15;10.85;;;;;;;28.04;100.00;100502.09;4863269;29;20033;-76
2021/07/01 07:21:22;;;;;;;18.90;11.55;;;;;;;27.94;100.00;100497.72;4849760;29;20033;-77
2021/07/01 07:24:09;;;;;;;22.75;11.38;;;;;;;28.09;100.00;100485.50;4849711;29;20025;-77
2021/07/01 07:26:56;;;;;;;18.05;9.60;;;;;;;28.74;100.00;100491.78;4849143;29;20036;-77
2021/07/01 07:29:44;;;;;;;13.57;9.95;;;;;;;28.54;100.00;100479.38;4863985;29;20085;-76
2021/07/01 07:32:31;;;;;;;11.50;9.77;;;;;;;28.45;100.00;100480.22;4861835;29;20040;-75
2021/07/01 07:35:16;;;;;;;11.85;9.57;;;;;;;28.90;100.00;100473.13;4862483;29;20459;-76
2021/07/01 07:38:07;;;;;;;15.45;10.25;;;;;;;29.18;100.00;100480.25;4863773;29;20041;-76
2021/07/01 07:40:54;;;;;;;19.50;10.63;;;;;;;29.20;100.00;100480.06;4862224;29;20036;-76
2021/07/01 07:43:41;;;;;;;13.23;10.07;;;;;;;29.47;100.00;100488.16;4861839;29;20053;-76
2021/07/01 07:46:29;;;;;;;13.48;10.02;;;;;;;29.86;100.00;100493.13;4860675;29;20043;-75
2021/07/01 07:49:15;;;;;;;20.05;11.65;;;;;;;29.34;100.00;100488.53;4863460;29;20037;-76
2021/07/01 07:52:03;;;;;;;19.35;11.40;;;;;;;28.40;100.00;100478.94;4861167;29;20032;-75
2021/07/01 07:54:53;;;;;;;16.52;11.35;;;;;;;29.27;100.00;100483.88;4849512;29;20025;-75
2021/07/01 07:57:39;;;;;;;22.90;10.93;;;;;;;29.79;100.00;100497.47;4861485;29;20082;-75
2021/07/01 08:00:27;;;;;;;15.50;11.25;;;;;;;29.92;100.00;100487.13;4863397;29;20044;-76
2021/07/01 08:03:14;;;;;;;18.90;10.77;;;;;;;30.24;100.00;100473.91;4861386;29;20069;-76
2021/07/01 08:06:01;;;;;;;17.75;11.15;;;;;;;30.06;100.00;100488.44;4848337;29;20047;-76
2021/07/01 08:08:47;;;;;;;21.23;11.27;;;;;;;30.44;100.00;100478.13;4861407;29;20037;-75
2021/07/01 08:11:35;;;;;;;16.60;11.00;;;;;;;30.18;100.00;100484.50;4862210;29;20152;-76
2021/07/01 08:14:23;;;;;;;19.33;11.25;;;;;;;31.03;100.00;100488.94;4847813;29;20030;-77
2021/07/01 08:17:09;;;;;;;16.00;10.68;;;;;;;30.86;100.00;100491.75;4862172;29;20112;-77
2021/07/01 08:19:55;;;;;;;17.50;12.05;;;;;;;31.61;100.00;100483.56;4861745;29;20033;-77
2021/07/01 08:22:46;;;;;;;12.60;10.20;;;;;;;30.76;100.00;100477.47;4862317;29;20467;-76
2021/07/01 08:25:32;;;;;;;15.60;11.05;;;;;;;31.07;100.00;100490.31;4862972;29;20081;-76
2021/07/01 08:28:20;;;;;;;15.82;11.07;;;;;;;31.43;100.00;100480.16;4860427;29;20036;-76
2021/07/01 08:31:11;;;;;;;15.73;10.50;;;;;;;31.66;100.00;100477.66;4861976;29;20104;-77
2021/07/01 08:33:58;;;;;;;19.25;10.82;;;;;;;31.55;100.00;100469.84;4861125;29;20032;-77
2021/07/01 08:36:46;;;;;;;14.27;10.68;;;;;;;31.79;100.00;100480.75;4861106;29;20516;-77
2021/07/01 08:39:33;;;;;;;15.65;11.43;;;;;;;31.38;100.00;100489.78;4860692;29;20033;-77
2021/07/01 08:42:21;;;;;;;18.45;11.70;;;;;;;31.50;100.00;100486.59;4849062;29;20120;-77
2021/07/01 08:45:10;;;;;;;17.77;11.80;;;;;;;31.49;100.00;100492.19;4847810;29;20096;-76
2021/07/01 08:48:04;;;;;;;18.98;12.40;;;;;;;31.48;100.00;100499.47;4861896;29;20093;-77
2021/07/01 08:50:55;;;;;;;20.77;13.35;;;;;;;31.02;100.00;100503.50;4861590;29;20045;-76
2021/07/01 08:54:00;;;;;;;18.95;12.93;;;;;;;31.56;100.00;100498.63;4861545;29;20113;-77
2021/07/01 08:56:47;;;;;;;16.17;11.93;;;;;;;31.78;100.00;100498.88;4861701;29;20042;-76
2021/07/01 08:59:54;;;;;;;18.65;12.48;;;;;;;31.76;100.00;100500.03;4848570;29;20124;-76
2021/07/01 09:02:55;;;;;;;17.30;12.77;;;;;;;32.26;100.00;100492.63;4861169;29;20101;-77
2021/07/01 09:05:45;;;;;;;18.17;13.57;;;;;;;32.00;100.00;100494.66;4861512;29;20037;-77
2021/07/01 09:08:39;;;;;;;20.02;12.77;;;;;;;31.93;100.00;100486.34;4860676;29;20026;-77
2021/07/01 09:11:28;;;;;;;19.13;12.50;;;;;;;31.61;100.00;100485.47;4861002;29;20117;-76
2021/07/01 09:14:17;;;;;;;22.90;13.05;;;;;;;31.94;100.00;100470.94;4861600;29;20037;-76
2021/07/01 09:17:08;;;;;;;19.52;13.73;;;;;;;32.00;100.00;100487.38;4848567;29;20034;-77
2021/07/01 09:19:56;;;;;;;21.23;13.05;;;;;;;32.01;100.00;100470.09;4848223;29;20026;-77
2021/07/01 09:22:42;;;;;;;21.30;13.57;;;;;;;31.73;100.00;100467.88;4861087;29;20100;-77
2021/07/01 09:25:28;;;;;;;18.80;13.60;;;;;;;31.83;100.00;100471.28;4849460;29;20041;-77
2021/07/01 09:28:14;;;;;;;17.75;13.65;;;;;;;32.10;100.00;100460.94;4851333;29;20378;-77
2021/07/01 09:31:07;;;;;;;19.70;13.40;;;;;;;32.29;100.00;100470.56;4864615;29;20120;-77
2021/07/01 09:33:53;;;;;;;23.17;13.80;;;;;;;32.19;100.00;100456.38;4864090;29;20044;-77
2021/07/01 09:36:39;;;;;;;15.52;12.95;;;;;;;32.68;100.00;100455.28;4851996;29;20029;-77
2021/07/01 09:39:25;;;;;;;18.23;13.23;;;;;;;32.64;100.00;100462.94;4863552;29;20069;-77
2021/07/01 09:42:11;;;;;;;23.52;13.32;;;;;;;32.58;100.00;100455.47;4851192;29;20120;-77
2021/07/01 09:45:04;;;;;;;19.35;12.93;;;;;;;32.63;100.00;100457.69;4863740;29;20050;-77
2021/07/01 09:48:07;;;;;;;15.30;12.48;;;;;;;32.13;100.00;100444.34;4864373;29;20037;-77
2021/07/01 09:50:54;;;;;;;16.80;12.90;;;;;;;32.37;100.00;100447.06;4850965;29;20112;-77
2021/07/01 09:53:40;;;;;;;21.77;14.52;;;;;;;32.59;100.00;100445.47;4863058;29;20401;-77
2021/07/01 09:56:37;;;;;;;18.52;13.55;;;;;;;32.83;100.00;100442.72;4864063;29;20113;-77
2021/07/01 09:59:26;;;;;;;19.80;13.07;;;;;;;32.92;100.00;100444.38;4865673;29;20044;-77
2021/07/01 10:02:19;;;;;;;20.73;13.60;;;;;;;32.67;100.00;100440.88;4851019;29;20443;-77
2021/07/01 10:05:24;;;;;;;18.00;13.70;;;;;;;33.10;100.00;100451.25;4851540;29;20030;-77
2021/07/01 10:08:10;;;;;;;19.90;13.70;;;;;;;33.17;100.00;100443.22;4863655;29;20040;-76
2021/07/01 10:10:56;;;;;;;22.15;13.73;;;;;;;33.02;100.00;100442.31;4863816;29;20029;-76
2021/07/01 10:13:53;;;;;;;23.27;13.68;;;;;;;32.60;100.00;100439.03;4863616;29;20030;-76
2021/07/01 10:16:39;;;;;;;20.10;13.52;;;;;;;32.96;100.00;100440.28;4864734;29;20037;-76
2021/07/01 10:19:34;;;;;;;19.90;13.52;;;;;;;33.08;100.00;100437.00;4864923;29;20463;-76
2021/07/01 10:22:20;;;;;;;17.08;13.27;;;;;;;32.73;100.00;100428.47;4864775;29;20451;-77
2021/07/01 10:25:10;;;;;;;19.67;13.48;;;;;;;33.06;100.00;100417.31;4865465;29;20447;-76
2021/07/01 10:28:07;;;;;;;22.15;13.75;;;;;;;32.69;100.00;100418.97;4851332;29;20337;-76
2021/07/01 10:30:57;;;;;;;17.80;14.20;;;;;;;32.82;100.00;100425.56;4851470;29;20029;-76
2021/07/01 10:33:44;;;;;;;19.33;14.15;;;;;;;32.99;100.00;100420.94;4863383;29;20443;-76
2021/07/01 10:36:30;;;;;;;23.58;14.98;;;;;;;32.76;100.00;100414.53;4864562;29;20037;-77
2021/07/01 10:39:27;;;;;;;16.00;14.40;;;;;;;33.16;100.00;100420.69;4863677;29;20044;-77
2021/07/01 10:42:16;;;;;;;20.95;14.45;;;;;;;33.35;100.00;100411.25;4850853;29;20034;-77
2021/07/01 10:45:10;;;;;;;21.80;13.88;;;;;;;32.07;100.00;100398.94;4849986;29;20121;-77
2021/07/01 10:48:13;;;;;;;22.25;15.55;;;;;;;32.36;100.00;100398.41;4850415;29;20049;-77
2021/07/01 10:51:11;;;;;;;22.20;15.13;;;;;;;33.30;100.00;100400.88;4850029;29;20041;-77
2021/07/01 10:54:14;;;;;;;19.55;14.48;;;;;;;33.48;100.00;100400.63;4854736;29;20120;-77
2021/07/01 10:57:08;;;;;;;17.35;14.70;;;;;;;32.68;100.00;100395.56;4854306;29;20470;-75
2021/07/01 10:59:56;;;;;;;21.23;14.30;;;;;;;32.72;100.00;100389.63;4841773;29;20041;-75
2021/07/01 11:02:49;;;;;;;18.02;13.95;;;;;;;32.77;100.00;100392.66;4853505;29;20405;-76
2021/07/01 11:05:35;;;;;;;16.27;13.25;;;;;;;33.52;100.00;100394.66;4841966;29;20029;-76
2021/07/01 11:08:27;;;;;;;16.92;13.38;;;;;;;33.46;100.00;100395.38;4842464;29;20038;-76
2021/07/01 11:11:21;;;;;;;18.52;13.30;;;;;;;33.82;100.00;100395.63;4853295;29;20033;-76
2021/07/01 11:14:12;;;;;;;16.90;12.63;;;;;;;33.96;100.00;100386.66;4854160;29;20029;-76
2021/07/01 11:17:01;;;;;;;18.13;13.05;;;;;;;34.31;100.00;100396.91;4849253;29;20058;-76
2021/07/01 11:19:47;;;;;;;17.35;12.68;;;;;;;33.96;100.00;100394.81;4844994;29;20051;-76
2021/07/01 11:23:03;;;;;;;17.13;12.60;;;;;;;34.43;100.00;100392.69;4851892;29;20033;-76
2021/07/01 11:25:48;;;;;;;18.63;12.73;;;;;;;33.84;100.00;100379.97;4844759;29;20041;-75
2021/07/01 11:28:38;;;;;;;19.95;12.40;;;;;;;33.66;100.00;100393.00;4852607;29;20097;-75
2021/07/01 11:31:40;;;;;;;17.40;12.57;;;;;;;34.29;100.00;100385.31;4854635;29;20167;-75
2021/07/01 11:34:39;;;;;;;17.10;11.95;;;;;;;34.48;100.00;100390.22;4841414;29;20037;-75
2021/07/01 11:37:39;;;;;;;16.50;11.70;;;;;;;34.73;100.00;100386.19;4853559;29;20128;-75
2021/07/01 11:40:25;;;;;;;17.88;11.40;;;;;;;33.99;100.00;100384.41;4854373;29;20049;-75
2021/07/01 11:43:13;;;;;;;17.20;11.50;;;;;;;33.97;100.00;100377.47;4853242;29;20037;-75
2021/07/01 11:46:00;;;;;;;16.55;11.07;;;;;;;34.44;100.00;100383.47;4852439;29;20061;-75
2021/07/01 11:48:50;;;;;;;23.83;11.30;;;;;;;34.66;100.00;100382.50;4852152;29;20081;-75
2021/07/01 11:51:37;;;;;;;18.75;11.77;;;;;;;34.79;100.00;100371.78;4839151;29;20033;-75
2021/07/01 11:54:23;;;;;;;16.30;10.40;;;;;;;34.64;99.94;100373.72;4840666;29;20048;-75
2021/07/01 11:57:09;;;;;;;18.42;11.05;;;;;;;34.50;100.00;100364.50;4851373;29;20147;-74
2021/07/01 11:59:56;;;;;;;17.30;11.18;;;;;;;34.94;98.04;100359.88;4853162;29;20056;-75
2021/07/01 12:02:44;;;;;;;18.27;10.90;;;;;;;34.42;100.00;100356.44;4852181;29;20097;-76
2021/07/01 12:05:31;;;;;;;17.55;11.40;;;;;;;34.56;100.00;100354.75;4854715;29;20044;-76
2021/07/01 12:08:17;;;;;;;13.55;11.27;;;;;;;34.90;100.00;100352.28;4839849;29;21247;-75
2021/07/01 12:11:05;;;;;;;17.52;11.43;;;;;;;34.91;100.00;100343.06;4851644;29;20061;-76
2021/07/01 12:13:51;;;;;;;22.38;11.60;;;;;;;34.79;100.00;100342.69;4854263;29;20037;-77
2021/07/01 12:16:40;;;;;;;15.82;10.98;;;;;;;34.61;100.00;100336.81;4851633;29;20069;-75
2021/07/01 12:19:45;;;;;;;15.95;10.32;;;;;;;34.71;100.00;100336.50;4840478;29;20037;-75
2021/07/01 12:22:48;;;;;;;18.30;11.00;;;;;;;34.75;100.00;100326.91;4853958;29;20077;-75
2021/07/01 12:25:37;;;;;;;18.17;10.80;;;;;;;35.06;100.00;100322.94;4853458;29;20459;-75
2021/07/01 12:28:26;;;;;;;16.20;10.57;;;;;;;35.10;100.00;100317.94;4853618;29;20064;-75
2021/07/01 12:31:21;;;;;;;15.85;10.18;;;;;;;35.05;97.81;100318.53;4840678;29;20032;-75
2021/07/01 12:34:11;;;;;;;14.48;10.52;;;;;;;35.01;100.00;100311.78;4853284;29;20026;-75
2021/07/01 12:37:03;;;;;;;15.43;10.73;;;;;;;33.72;100.00;100310.75;4852894;29;20034;-75
2021/07/01 12:39:49;;;;;;;17.52;11.80;;;;;;;34.76;100.00;100312.28;4852516;29;20470;-75
2021/07/01 12:42:38;;;;;;;18.50;10.75;;;;;;;35.27;100.00;100304.91;4853917;29;20403;-74
2021/07/01 12:45:31;;;;;;;23.90;10.45;;;;;;;35.31;98.90;100300.81;4853403;29;20060;-74
2021/07/01 12:48:40;;;;;;;16.38;10.80;;;;;;;35.39;99.26;100285.13;4852899;29;20033;-74
2021/07/01 12:51:42;;;;;;;21.08;11.60;;;;;;;34.94;100.00;100285.50;4852928;29;20041;-75
2021/07/01 12:54:31;;;;;;;16.20;11.07;;;;;;;34.63;100.00;100274.88;4839567;29;20480;-75
2021/07/01 12:57:16;;;;;;;14.45;10.73;;;;;;;34.46;100.00;100267.09;4852833;29;20313;-75
2021/07/01 13:00:08;;;;;;;14.45;10.50;;;;;;;34.72;100.00;100262.81;4851387;29;20025;-77
2021/07/01 13:03:00;;;;;;;14.25;9.98;;;;;;;34.46;97.25;100256.22;4857427;29;20037;-76
2021/07/01 13:05:46;;;;;;;12.55;9.55;;;;;;;35.19;93.89;100246.78;4855200;29;20038;-76
2021/07/01 13:08:38;;;;;;;13.43;10.00;;;;;;;35.42;94.40;100237.56;4857295;29;20037;-76